Flight Track Log - Related Links

Times and Time Zones

All times are in EDT time to prevent confusion due to time zone crossing. See the AMX231 flight status page for this flight to view local times or setup timezone preferences in your user account.

Time Position Orientation Groundspeed Altitude Reporting Facility
EDT Latitude Longitude Course Direction KTS MPH feet Rate Location/Type
Wed 05:37:00 PM 24.3351 -102.4989 146° Southeast  Level Estimated
Wed 05:38:00 PM 24.2579 -102.4425 146° Southeast  Level Estimated
Wed 05:39:00 PM 24.1806 -102.3862 146° Southeast  Level Estimated
Wed 05:40:00 PM 24.1033 -102.3299 146° Southeast  Level Estimated
Wed 05:41:00 PM 24.0260 -102.2738 146° Southeast  Level Estimated
Wed 05:42:00 PM 23.9486 -102.2177 146° Southeast  Level Estimated
Wed 05:43:00 PM 23.8713 -102.1616 146° Southeast  Level Estimated
Wed 05:44:00 PM 23.7939 -102.1056 146° Southeast  Level Estimated
Wed 05:45:00 PM 23.7165 -102.0497 147° Southeast  Level Estimated
Wed 05:46:00 PM 23.6391 -101.9939 147° Southeast  Level Estimated
Wed 05:47:00 PM 23.5616 -101.9381 147° Southeast  Level Estimated
Wed 05:48:00 PM 23.4842 -101.8824 147° Southeast  Level Estimated
Wed 05:49:00 PM 23.4067 -101.8268 147° Southeast  Level Estimated
Wed 05:50:00 PM 23.3292 -101.7712 147° Southeast  Level Estimated
Wed 05:51:00 PM 23.2517 -101.7157 147° Southeast  Level Estimated
Wed 05:52:00 PM 23.1741 -101.6602 147° Southeast  Level Estimated
Wed 05:53:00 PM 23.0966 -101.6048 147° Southeast  Level Estimated
Wed 05:54:00 PM 23.0190 -101.5495 147° Southeast  Level Estimated
Wed 05:55:00 PM 22.9414 -101.4942 147° Southeast  Level Estimated
Wed 05:56:00 PM 22.8638 -101.4390 147° Southeast  Level Estimated
Wed 05:57:00 PM 22.7861 -101.3839 147° Southeast  Level Estimated
Wed 05:58:00 PM 22.7085 -101.3288 147° Southeast  Level Estimated
Wed 05:59:00 PM 22.6308 -101.2738 147° Southeast  Level Estimated
Wed 06:00:00 PM 22.5531 -101.2189 147° Southeast  Level Estimated
Wed 06:01:00 PM 22.4754 -101.1640 147° Southeast  Level Estimated
Wed 06:02:00 PM 22.3977 -101.1092 147° Southeast  Level Estimated
Wed 06:03:00 PM 22.3200 -101.0544 147° Southeast  Level Estimated
Wed 06:04:00 PM 22.2422 -100.9997 147° Southeast  Level Estimated
Wed 06:05:00 PM 22.1644 -100.9451 147° Southeast  Level Estimated
Wed 06:06:00 PM 22.0866 -100.8905 147° Southeast  Level Estimated
Wed 06:07:00 PM 22.0088 -100.8360 147° Southeast  Level Estimated
Wed 06:08:00 PM 21.9310 -100.7815 147° Southeast  Level Estimated
Wed 06:09:00 PM 21.8531 -100.7271 147° Southeast  Level Estimated
Wed 06:10:00 PM 21.7752 -100.6728 147° Southeast  Level Estimated
Wed 06:11:00 PM 21.6921 -100.6148 147° Southeast  Level Estimated
Wed 06:12:00 PM 21.6089 -100.5569 147° Southeast  Level Estimated
Wed 06:13:00 PM 21.5257 -100.4991 147° Southeast  Level Estimated
Wed 06:14:00 PM 21.4425 -100.4414 147° Southeast  Level Estimated
Wed 06:15:00 PM 21.3593 -100.3837 147° Southeast  Level Estimated
Wed 06:16:00 PM 21.2760 -100.3261 147° Southeast  Level Estimated
Wed 06:17:00 PM 21.1928 -100.2685 147° Southeast  Level Estimated
Wed 06:18:00 PM 21.1095 -100.2110 147° Southeast  Level Estimated
Wed 06:19:00 PM 21.0262 -100.1536 147° Southeast  Level Estimated
Wed 06:20:00 PM 20.9428 -100.0963 147° Southeast  Level Estimated
Wed 06:21:00 PM 20.8595 -100.0390 147° Southeast  Level Estimated
Wed 06:22:00 PM 20.7761 -99.9817 147° Southeast  Level Estimated
Wed 06:23:00 PM 20.6927 -99.9246 147° Southeast  Level Estimated
Wed 06:24:00 PM 20.6093 -99.8675 147° Southeast  Level Estimated
Wed 06:25:00 PM 20.5259 -99.8104 147° Southeast  Level Estimated
Wed 06:26:00 PM 20.4425 -99.7534 147° Southeast  Level Estimated
Wed 06:27:00 PM 20.3590 -99.6965 147° Southeast  Level Estimated
Wed 06:28:00 PM 20.2755 -99.6397 147° Southeast  Level Estimated
Wed 06:29:00 PM 20.1920 -99.5829 147° Southeast  Level Estimated
Wed 06:30:00 PM 20.1085 -99.5261 147° Southeast  Level Estimated
Wed 06:31:00 PM 20.0250 -99.4695 147° Southeast  Level Estimated
Wed 06:32:00 PM 19.9414 -99.4128 148° Southeast  Level Estimated
Wed 06:33:00 PM 19.8578 -99.3563 148° Southeast  Level Estimated
Wed 06:34:00 PM 19.7743 -99.2998 148° Southeast  Level Estimated
Wed 06:35:00 PM 19.6907 -99.2433 148° Southeast  Level Estimated
Wed 06:36:00 PM 19.6070 -99.1870 148° Southeast  Level Estimated
Wed 06:37:00 PM 19.5234 -99.1307 148° Southeast  Level Estimated
Wed 06:38:00 PM 19.4397 -99.0744 148° Southeast  Level Estimated
Wed 06:39:00 PM 19.4363 -99.0721 148° Southeast  Level Estimated
Wed 06:40:00 PM 19.4363 -99.0721 43° Northeast  Level Estimated
Wed 06:41:00 PM 19.4363 -99.0721 43° Northeast  Level Estimated
Wed 06:42:00 PM 19.4363 -99.0721 43° Northeast  Level Estimated
Wed 06:43:00 PM 19.4363 -99.0721 43° Northeast  Level Estimated
Wed 06:44:00 PM 19.4363 -99.0721 43° Northeast  Level Estimated
Wed 06:45:00 PM 19.4363 -99.0721 43° Northeast  Level Estimated
Wed 06:46:00 PM 19.4363 -99.0721 43° Northeast  Level Estimated
Wed 06:47:00 PM 19.4363 -99.0721 43° Northeast  Level Estimated
Wed 06:48:00 PM 19.4363 -99.0721 43° Northeast  Level Estimated
Wed 06:49:00 PM 19.4363 -99.0721 43° Northeast  Level Estimated
Wed 06:50:00 PM 19.4363 -99.0721 43° Northeast  Level Estimated
Wed 06:51:00 PM 19.4363 -99.0721 43° Northeast  Level Estimated

Login

Don't have an account? Register now (free) for customized features, flight alerts, and more!